createdAt,value
2023-04-28T00:00:02.839Z,7.30
2023-04-28T00:01:03.446Z,7.30
2023-04-28T00:02:03.547Z,7.30
2023-04-28T00:03:03.148Z,7.30
2023-04-28T00:04:03.398Z,7.30
2023-04-28T00:05:03.699Z,7.30
2023-04-28T00:06:03.477Z,7.30
2023-04-28T00:07:03.075Z,7.30
2023-04-28T00:08:02.698Z,7.30
2023-04-28T00:09:03.266Z,7.30
2023-04-28T00:10:03.645Z,7.30
2023-04-28T00:11:03.513Z,7.30
2023-04-28T00:12:03.696Z,7.30
2023-04-28T00:13:03.527Z,7.30
2023-04-28T00:14:03.260Z,7.30
2023-04-28T00:15:03.237Z,7.20
2023-04-28T00:16:02.802Z,7.20
2023-04-28T00:17:03.543Z,7.20
2023-04-28T00:18:02.696Z,7.20
2023-04-28T00:19:02.873Z,7.20
2023-04-28T00:20:03.428Z,7.20
2023-04-28T00:21:03.318Z,7.20
2023-04-28T00:22:02.865Z,7.20
2023-04-28T00:23:03.400Z,7.20
2023-04-28T00:24:03.094Z,7.20
2023-04-28T00:25:02.648Z,7.20
2023-04-28T00:26:02.698Z,7.20
2023-04-28T00:27:03.302Z,7.20
2023-04-28T00:28:02.788Z,7.20
2023-04-28T00:29:02.823Z,7.10
2023-04-28T00:30:02.947Z,7.10
2023-04-28T00:31:02.676Z,7.10
2023-04-28T00:32:03.325Z,7.10
2023-04-28T00:33:03.427Z,7.10
2023-04-28T00:34:03.215Z,7.10
2023-04-28T00:35:02.747Z,7.10
2023-04-28T00:36:03.249Z,7.10
2023-04-28T00:37:03.279Z,7.10
2023-04-28T00:38:03.230Z,7.10
2023-04-28T00:39:03.211Z,7.10
2023-04-28T00:40:02.840Z,7.10
2023-04-28T00:41:03.440Z,7.10
2023-04-28T00:42:03.066Z,7.10
2023-04-28T00:43:02.981Z,7.10
2023-04-28T00:44:03.462Z,7.10
2023-04-28T00:45:02.987Z,7.10
2023-04-28T00:46:03.519Z,7.10
2023-04-28T00:47:03.680Z,7.10
2023-04-28T00:48:03.152Z,7.10
2023-04-28T00:49:02.771Z,7.10
2023-04-28T00:50:02.693Z,7.10
2023-04-28T00:51:03.234Z,7.10
2023-04-28T00:52:02.966Z,7.10
2023-04-28T00:53:03.514Z,7.10
2023-04-28T00:54:03.090Z,7.10
2023-04-28T00:55:02.833Z,7.10
2023-04-28T00:56:03.308Z,7.10
2023-04-28T00:57:03.063Z,7.10
2023-04-28T00:58:02.980Z,7.10
2023-04-28T00:59:03.537Z,7.10
2023-04-28T01:00:03.078Z,7.10
2023-04-28T01:01:02.947Z,7.10
2023-04-28T01:02:03.682Z,7.10
2023-04-28T01:03:03.512Z,7.10
2023-04-28T01:04:03.354Z,7.10
2023-04-28T01:05:02.694Z,7.10
2023-04-28T01:06:03.301Z,7.00
2023-04-28T01:07:02.933Z,7.00
2023-04-28T01:08:03.438Z,7.00
2023-04-28T01:09:03.439Z,7.00
2023-04-28T01:10:03.080Z,7.00
2023-04-28T01:11:02.618Z,7.00
2023-04-28T01:12:03.421Z,7.00
2023-04-28T01:13:02.857Z,7.00
2023-04-28T01:14:02.932Z,7.00
2023-04-28T01:15:03.358Z,7.00
2023-04-28T01:16:03.316Z,7.00
2023-04-28T01:17:03.085Z,7.00
2023-04-28T01:18:02.630Z,6.90
2023-04-28T01:19:03.236Z,6.90
2023-04-28T01:20:02.994Z,6.90
2023-04-28T01:21:02.902Z,6.90
2023-04-28T01:22:03.632Z,6.90
2023-04-28T01:23:03.105Z,6.90
2023-04-28T01:24:03.613Z,6.90
2023-04-28T01:25:03.217Z,6.90
2023-04-28T01:26:02.649Z,6.90
2023-04-28T01:27:03.285Z,6.90
2023-04-28T01:28:03.199Z,6.90
2023-04-28T01:29:02.846Z,6.90
2023-04-28T01:30:03.366Z,6.90
2023-04-28T01:31:03.366Z,6.90
2023-04-28T01:32:03.150Z,6.90
2023-04-28T01:33:02.763Z,6.90
2023-04-28T01:34:02.644Z,6.90
2023-04-28T01:35:03.334Z,6.90
2023-04-28T01:36:03.627Z,6.90
2023-04-28T01:37:03.663Z,6.90
2023-04-28T01:38:03.088Z,6.90
2023-04-28T01:39:03.136Z,6.90
2023-04-28T01:40:02.635Z,6.90
2023-04-28T01:41:03.252Z,6.80
2023-04-28T01:42:02.874Z,6.80
2023-04-28T01:43:03.447Z,6.80
2023-04-28T01:44:03.459Z,6.80
2023-04-28T01:45:03.504Z,6.80
2023-04-28T01:46:03.054Z,6.90
2023-04-28T01:47:02.833Z,6.90
2023-04-28T01:48:03.333Z,6.90
2023-04-28T01:49:03.268Z,6.90
2023-04-28T01:50:02.816Z,6.90
2023-04-28T01:51:02.886Z,6.90
2023-04-28T01:52:02.935Z,6.90
2023-04-28T01:53:02.904Z,6.90
2023-04-28T01:54:03.599Z,6.90
2023-04-28T01:55:03.150Z,6.90
2023-04-28T01:56:03.001Z,6.90
2023-04-28T01:57:03.016Z,6.90
2023-04-28T01:58:02.932Z,6.90
2023-04-28T01:59:03.581Z,6.90
2023-04-28T02:00:03.566Z,6.90
2023-04-28T02:01:02.679Z,6.90
2023-04-28T02:02:03.383Z,6.90
2023-04-28T02:03:03.300Z,6.90
2023-04-28T02:04:03.643Z,6.90
2023-04-28T02:05:03.186Z,6.90
2023-04-28T02:06:02.825Z,6.90
2023-04-28T02:07:03.364Z,6.90
2023-04-28T02:08:02.952Z,6.90
2023-04-28T02:09:03.565Z,6.90
2023-04-28T02:10:03.563Z,6.90
2023-04-28T02:11:03.585Z,6.90
2023-04-28T02:12:03.003Z,6.90
2023-04-28T02:13:03.039Z,6.90
2023-04-28T02:14:02.643Z,6.90
2023-04-28T02:15:03.309Z,6.90
2023-04-28T02:16:02.865Z,6.90
2023-04-28T02:17:03.532Z,6.90
2023-04-28T02:18:03.650Z,6.90
2023-04-28T02:19:03.143Z,6.90
2023-04-28T02:20:03.259Z,6.90
2023-04-28T02:21:03.155Z,6.90
2023-04-28T02:22:02.844Z,6.90
2023-04-28T02:23:03.447Z,6.90
2023-04-28T02:24:03.024Z,6.90
2023-04-28T02:25:02.968Z,6.90
2023-04-28T02:26:03.535Z,6.90
2023-04-28T02:27:03.077Z,6.90
2023-04-28T02:28:03.631Z,6.90
2023-04-28T02:29:03.187Z,6.90
2023-04-28T02:30:03.143Z,6.90
2023-04-28T02:31:02.663Z,6.90
2023-04-28T02:32:02.921Z,6.90
2023-04-28T02:33:03.700Z,6.90
2023-04-28T02:34:03.361Z,6.90
2023-04-28T02:35:02.883Z,6.90
2023-04-28T02:36:03.324Z,6.90
2023-04-28T02:37:02.873Z,6.90
2023-04-28T02:38:02.812Z,6.90
2023-04-28T02:39:02.890Z,6.90
2023-04-28T02:40:02.933Z,6.90
2023-04-28T02:41:03.498Z,6.90
2023-04-28T02:42:03.195Z,6.90
2023-04-28T02:43:03.192Z,6.90
2023-04-28T02:44:02.813Z,6.90
2023-04-28T02:45:03.494Z,6.90
2023-04-28T02:46:03.045Z,6.90
2023-04-28T02:47:02.975Z,7.00
2023-04-28T02:48:03.647Z,7.00
2023-04-28T02:49:03.461Z,7.00
2023-04-28T02:50:02.979Z,7.00
2023-04-28T02:51:02.967Z,7.00
2023-04-28T02:52:02.895Z,7.00
2023-04-28T02:53:03.371Z,7.00
2023-04-28T02:54:02.995Z,7.00
2023-04-28T02:55:03.462Z,7.00
2023-04-28T02:56:03.050Z,7.00
2023-04-28T02:57:02.619Z,7.00
2023-04-28T02:58:03.571Z,7.10
2023-04-28T02:59:03.334Z,7.10
2023-04-28T03:00:02.895Z,7.10
2023-04-28T03:01:03.543Z,7.10
2023-04-28T03:02:03.148Z,7.10
2023-04-28T03:03:02.761Z,7.10
2023-04-28T03:04:03.740Z,7.10
2023-04-28T03:05:03.329Z,7.10
2023-04-28T03:06:03.085Z,7.10
2023-04-28T03:07:03.269Z,7.10
2023-04-28T03:08:02.752Z,7.20
2023-04-28T03:09:03.228Z,7.20
2023-04-28T03:10:03.190Z,7.20
2023-04-28T03:11:02.713Z,7.20
2023-04-28T03:12:02.877Z,7.20
2023-04-28T03:13:03.549Z,7.20
2023-04-28T03:14:03.220Z,7.20
2023-04-28T03:15:03.206Z,7.20
2023-04-28T03:16:02.959Z,7.20
2023-04-28T03:17:03.613Z,7.20
2023-04-28T03:18:03.322Z,7.20
2023-04-28T03:19:03.666Z,7.20
2023-04-28T03:20:03.574Z,7.30
2023-04-28T03:21:03.121Z,7.20
2023-04-28T03:22:02.760Z,7.20
2023-04-28T03:23:03.384Z,7.30
2023-04-28T03:24:04.846Z,7.30
2023-04-28T03:25:02.784Z,7.30
2023-04-28T03:26:03.406Z,7.30
2023-04-28T03:27:02.962Z,7.30
2023-04-28T03:28:03.043Z,7.30
2023-04-28T03:29:02.600Z,7.30
2023-04-28T03:30:03.161Z,7.30
2023-04-28T03:31:02.680Z,7.30
2023-04-28T03:32:03.176Z,7.30
2023-04-28T03:33:02.948Z,7.30
2023-04-28T03:34:03.567Z,7.30
2023-04-28T03:35:02.702Z,7.30
2023-04-28T03:36:03.359Z,7.30
2023-04-28T03:37:03.057Z,7.30
2023-04-28T03:38:03.620Z,7.30
2023-04-28T03:39:03.214Z,7.30
2023-04-28T03:40:02.675Z,7.30
2023-04-28T03:41:03.423Z,7.30
2023-04-28T03:42:03.008Z,7.30
2023-04-28T03:43:04.699Z,7.30
2023-04-28T03:44:03.029Z,7.40
2023-04-28T03:45:02.664Z,7.40
2023-04-28T03:46:02.766Z,7.40
2023-04-28T03:47:03.378Z,7.40
2023-04-28T03:48:03.347Z,7.40
2023-04-28T03:49:03.169Z,7.40
2023-04-28T03:50:02.643Z,7.40
2023-04-28T03:51:03.347Z,7.40
2023-04-28T03:52:03.507Z,7.30
2023-04-28T03:53:03.255Z,7.40
2023-04-28T03:54:03.246Z,7.30
2023-04-28T03:55:02.794Z,7.40
2023-04-28T03:56:03.360Z,7.40
2023-04-28T03:57:03.329Z,7.40
2023-04-28T03:58:03.066Z,7.40
2023-04-28T03:59:03.203Z,7.40
2023-04-28T04:00:02.820Z,7.40
2023-04-28T04:01:03.526Z,7.40
2023-04-28T04:02:03.057Z,7.40
2023-04-28T04:03:02.750Z,7.40
2023-04-28T04:04:02.906Z,7.40
2023-04-28T04:05:02.766Z,7.40
2023-04-28T04:06:03.029Z,7.40
2023-04-28T04:07:03.614Z,7.40
2023-04-28T04:08:02.763Z,7.40
2023-04-28T04:09:03.292Z,7.40
2023-04-28T04:10:04.322Z,7.50
2023-04-28T04:11:02.909Z,7.50
2023-04-28T04:12:03.390Z,7.50
2023-04-28T04:13:03.414Z,7.50
2023-04-28T04:14:03.467Z,7.50
2023-04-28T04:15:03.015Z,7.50
2023-04-28T04:16:03.157Z,7.50
2023-04-28T04:17:02.874Z,7.50
2023-04-28T04:18:02.897Z,7.50
2023-04-28T04:19:03.555Z,7.60
2023-04-28T04:20:03.242Z,7.60
2023-04-28T04:21:02.940Z,7.60
2023-04-28T04:22:03.415Z,7.60
2023-04-28T04:23:03.057Z,7.60
2023-04-28T04:24:02.631Z,7.60
2023-04-28T04:25:03.409Z,7.60
2023-04-28T04:26:02.846Z,7.60
2023-04-28T04:27:03.486Z,7.60
2023-04-28T04:28:03.179Z,7.70
2023-04-28T04:29:02.937Z,7.70
2023-04-28T04:30:02.740Z,7.70
2023-04-28T04:31:03.426Z,7.70
2023-04-28T04:32:03.181Z,7.70
2023-04-28T04:33:02.893Z,7.70
2023-04-28T04:34:02.873Z,7.70
2023-04-28T04:35:03.588Z,7.80
2023-04-28T04:36:03.515Z,7.80
2023-04-28T04:37:03.605Z,7.80
2023-04-28T04:38:03.068Z,7.80
2023-04-28T04:39:03.080Z,7.80
2023-04-28T04:40:03.030Z,7.80
2023-04-28T04:41:02.751Z,7.80
2023-04-28T04:42:10.434Z,7.80
2023-04-28T04:43:03.314Z,7.80
2023-04-28T04:44:02.922Z,7.80
2023-04-28T04:45:03.489Z,7.90
2023-04-28T04:46:03.481Z,7.90
2023-04-28T04:47:03.268Z,7.90
2023-04-28T04:48:03.141Z,7.90
2023-04-28T04:49:02.838Z,7.90
2023-04-28T04:50:02.897Z,8.00
2023-04-28T04:51:03.623Z,8.00
2023-04-28T04:52:03.588Z,8.00
2023-04-28T04:53:02.779Z,8.00
2023-04-28T04:54:02.687Z,8.10
2023-04-28T04:55:03.390Z,8.10
2023-04-28T04:56:02.921Z,8.20
2023-04-28T04:57:03.554Z,8.20
2023-04-28T04:58:03.549Z,8.20
2023-04-28T04:59:03.333Z,8.30
2023-04-28T05:00:03.469Z,8.30
2023-04-28T05:01:03.258Z,8.30
2023-04-28T05:02:03.287Z,8.40
2023-04-28T05:03:02.771Z,8.40
2023-04-28T05:04:03.559Z,8.40
2023-04-28T05:05:12.734Z,8.40
2023-04-28T05:06:03.113Z,8.40
2023-04-28T05:07:03.547Z,8.40
2023-04-28T05:08:03.254Z,8.40
2023-04-28T05:09:03.312Z,8.50
2023-04-28T05:10:02.806Z,8.50
2023-04-28T05:11:03.461Z,8.50
2023-04-28T05:12:02.980Z,8.50
2023-04-28T05:13:03.556Z,8.50
2023-04-28T05:14:02.734Z,8.50
2023-04-28T05:15:02.639Z,8.50
2023-04-28T05:16:03.390Z,8.60
2023-04-28T05:17:02.966Z,8.60
2023-04-28T05:18:02.893Z,8.60
2023-04-28T05:19:03.641Z,8.70
2023-04-28T05:20:03.672Z,8.70
2023-04-28T05:21:03.163Z,8.70
2023-04-28T05:22:02.840Z,8.70
2023-04-28T05:23:03.341Z,8.80
2023-04-28T05:24:02.939Z,8.80
2023-04-28T05:25:03.339Z,8.80
2023-04-28T05:26:02.898Z,8.80
2023-04-28T05:27:03.564Z,8.90
2023-04-28T05:28:03.576Z,8.90
2023-04-28T05:29:03.160Z,8.90
2023-04-28T05:30:02.720Z,8.90
2023-04-28T05:31:02.718Z,9.00
2023-04-28T05:32:03.290Z,9.00
2023-04-28T05:33:03.015Z,9.00
2023-04-28T05:34:03.220Z,9.00
2023-04-28T05:35:03.210Z,9.10
2023-04-28T05:36:03.324Z,9.10
2023-04-28T05:37:03.255Z,9.10
2023-04-28T05:38:02.806Z,9.10
2023-04-28T05:39:02.838Z,9.20
2023-04-28T05:40:03.449Z,9.20
2023-04-28T05:41:02.882Z,9.20
2023-04-28T05:42:03.397Z,9.20
2023-04-28T05:43:03.066Z,9.20
2023-04-28T05:44:02.843Z,9.20
2023-04-28T05:45:03.446Z,9.30
2023-04-28T05:46:03.044Z,9.30
2023-04-28T05:47:02.960Z,9.30
2023-04-28T05:48:02.694Z,9.30
2023-04-28T05:49:03.055Z,9.40
2023-04-28T05:50:03.535Z,9.40
2023-04-28T05:51:02.647Z,9.40
2023-04-28T05:52:03.299Z,9.40
2023-04-28T05:53:02.980Z,9.50
2023-04-28T05:54:02.950Z,9.50
2023-04-28T05:55:02.796Z,9.50
2023-04-28T05:56:03.341Z,9.50
2023-04-28T05:57:03.187Z,9.60
2023-04-28T05:58:02.675Z,9.60
2023-04-28T05:59:03.368Z,9.60
2023-04-28T06:00:03.562Z,9.60
2023-04-28T06:01:03.236Z,9.60
2023-04-28T06:02:02.809Z,9.70
2023-04-28T06:03:03.626Z,9.70
2023-04-28T06:04:02.825Z,9.70
2023-04-28T06:05:02.859Z,9.70
2023-04-28T06:06:04.616Z,9.70
2023-04-28T06:07:02.960Z,9.70
2023-04-28T06:08:03.590Z,9.80
2023-04-28T06:09:03.227Z,9.80
2023-04-28T06:10:03.312Z,9.80
2023-04-28T06:11:02.791Z,9.80
2023-04-28T06:12:03.343Z,9.80
2023-04-28T06:13:03.109Z,9.80
2023-04-28T06:14:03.601Z,9.80
2023-04-28T06:15:02.923Z,9.80
2023-04-28T06:16:03.521Z,9.80
2023-04-28T06:17:02.631Z,9.80
2023-04-28T06:18:03.358Z,9.80
2023-04-28T06:19:02.876Z,9.90
2023-04-28T06:20:03.654Z,9.90
2023-04-28T06:21:03.571Z,9.90
2023-04-28T06:22:03.700Z,9.90
2023-04-28T06:23:03.186Z,9.90
2023-04-28T06:24:02.885Z,9.90
2023-04-28T06:25:03.348Z,10.00
2023-04-28T06:26:03.254Z,10.00
2023-04-28T06:27:02.910Z,10.00
2023-04-28T06:28:02.989Z,10.00
2023-04-28T06:29:03.516Z,10.00
2023-04-28T06:30:03.108Z,10.00
2023-04-28T06:31:03.162Z,10.00
2023-04-28T06:32:03.210Z,10.00
2023-04-28T06:33:03.050Z,10.10
2023-04-28T06:34:02.854Z,10.10
2023-04-28T06:35:02.825Z,10.10
2023-04-28T06:36:02.806Z,10.10
2023-04-28T06:37:02.846Z,10.10
2023-04-28T06:38:03.339Z,10.10
2023-04-28T06:39:02.929Z,10.10
2023-04-28T06:40:03.494Z,10.20
2023-04-28T06:41:03.219Z,10.20
2023-04-28T06:42:03.210Z,10.20
2023-04-28T06:43:03.276Z,10.20
2023-04-28T06:44:03.219Z,10.20
2023-04-28T06:45:03.468Z,10.20
2023-04-28T06:46:02.973Z,10.20
2023-04-28T06:47:02.912Z,10.20
2023-04-28T06:48:03.436Z,10.20
2023-04-28T06:49:02.666Z,10.30
2023-04-28T06:50:03.295Z,10.30
2023-04-28T06:51:02.686Z,10.30
2023-04-28T06:52:03.490Z,10.30
2023-04-28T06:53:02.968Z,10.30
2023-04-28T06:54:03.017Z,10.30
2023-04-28T06:55:03.538Z,10.30
2023-04-28T06:56:03.069Z,10.40
2023-04-28T06:57:02.684Z,10.40
2023-04-28T06:58:03.604Z,10.40
2023-04-28T06:59:02.625Z,10.40
2023-04-28T07:00:02.660Z,10.40
2023-04-28T07:01:03.112Z,10.40
2023-04-28T07:02:03.525Z,10.50
2023-04-28T07:03:03.213Z,10.40
2023-04-28T07:04:03.403Z,10.50
2023-04-28T07:05:03.128Z,10.50
2023-04-28T07:06:02.845Z,10.50
2023-04-28T07:07:03.378Z,10.50
2023-04-28T07:08:02.880Z,10.50
2023-04-28T07:09:03.516Z,10.50
2023-04-28T07:10:03.175Z,10.50
2023-04-28T07:11:02.777Z,10.50
2023-04-28T07:12:03.645Z,10.50
2023-04-28T07:13:02.654Z,10.50
2023-04-28T07:14:03.300Z,10.50
2023-04-28T07:15:02.929Z,10.50
2023-04-28T07:16:03.571Z,10.50
2023-04-28T07:17:03.245Z,10.60
2023-04-28T07:18:02.883Z,10.60
2023-04-28T07:19:03.183Z,10.60
2023-04-28T07:20:03.119Z,10.60
2023-04-28T07:21:05.357Z,10.60
2023-04-28T07:22:03.656Z,10.60
2023-04-28T07:23:02.695Z,10.60
2023-04-28T07:24:02.729Z,10.60
2023-04-28T07:25:02.719Z,10.60
2023-04-28T07:26:03.176Z,10.60
2023-04-28T07:27:03.156Z,10.60
2023-04-28T07:28:03.049Z,10.60
2023-04-28T07:29:03.565Z,10.60
2023-04-28T07:30:09.008Z,10.60
2023-04-28T07:31:02.855Z,10.60
2023-04-28T07:32:04.698Z,10.70
2023-04-28T07:33:03.484Z,10.70
2023-04-28T07:34:02.749Z,10.70
2023-04-28T07:35:02.813Z,10.70
2023-04-28T07:36:02.778Z,10.70
2023-04-28T07:37:03.302Z,10.70
2023-04-28T07:38:03.142Z,10.70
2023-04-28T07:39:03.467Z,10.70
2023-04-28T07:40:03.419Z,10.70
2023-04-28T07:41:03.123Z,10.70
2023-04-28T07:42:03.191Z,10.70
2023-04-28T07:43:03.005Z,10.70
2023-04-28T07:44:03.609Z,10.70
2023-04-28T07:45:03.226Z,10.70
2023-04-28T07:46:02.891Z,10.70
2023-04-28T07:47:03.510Z,10.70
2023-04-28T07:48:03.036Z,10.70
2023-04-28T07:49:02.667Z,10.70
2023-04-28T07:50:02.733Z,10.70
2023-04-28T07:51:02.827Z,10.70
2023-04-28T07:52:02.741Z,10.70
2023-04-28T07:53:03.222Z,10.70
2023-04-28T07:54:03.189Z,10.70
2023-04-28T07:55:02.905Z,10.70
2023-04-28T07:56:02.907Z,10.70
2023-04-28T07:57:03.523Z,10.70
2023-04-28T07:58:03.044Z,10.70
2023-04-28T07:59:03.153Z,10.70
2023-04-28T08:00:02.791Z,10.70
2023-04-28T08:01:03.491Z,10.70
2023-04-28T08:02:03.390Z,10.80
2023-04-28T08:03:03.270Z,10.80
2023-04-28T08:04:03.433Z,10.80
2023-04-28T08:05:03.751Z,10.80
2023-04-28T08:06:02.872Z,10.80
2023-04-28T08:07:03.118Z,10.80
2023-04-28T08:08:03.071Z,10.80
2023-04-28T08:09:02.738Z,10.80
2023-04-28T08:10:03.367Z,10.80
2023-04-28T08:11:03.021Z,10.80
2023-04-28T08:12:03.532Z,10.80
2023-04-28T08:13:03.192Z,10.80
2023-04-28T08:14:03.119Z,10.80
2023-04-28T08:15:03.459Z,10.80
2023-04-28T08:16:03.411Z,10.80
2023-04-28T08:17:02.864Z,10.80
2023-04-28T08:18:03.449Z,10.80
2023-04-28T08:19:03.038Z,10.80
2023-04-28T08:20:02.899Z,10.80
2023-04-28T08:21:02.759Z,10.80
2023-04-28T08:22:03.373Z,10.80
2023-04-28T08:23:02.896Z,10.80
2023-04-28T08:24:02.813Z,10.80
2023-04-28T08:25:03.478Z,10.80
2023-04-28T08:26:02.977Z,10.80
2023-04-28T08:27:03.202Z,10.80
2023-04-28T08:28:02.836Z,10.80
2023-04-28T08:29:03.310Z,10.80
2023-04-28T08:30:02.837Z,10.80
2023-04-28T08:31:02.864Z,10.80
2023-04-28T08:32:03.568Z,10.70
2023-04-28T08:33:03.078Z,10.70
2023-04-28T08:34:03.601Z,10.70
2023-04-28T08:35:03.154Z,10.70
2023-04-28T08:36:02.835Z,10.70
2023-04-28T08:37:02.789Z,10.70
2023-04-28T08:38:03.371Z,10.60
2023-04-28T08:39:02.955Z,10.70
2023-04-28T08:40:03.711Z,10.60
2023-04-28T08:41:03.132Z,10.70
2023-04-28T08:42:03.644Z,10.60
2023-04-28T08:43:03.039Z,10.70
2023-04-28T08:44:03.654Z,10.70
2023-04-28T08:45:03.607Z,10.70
2023-04-28T08:46:03.603Z,10.70
2023-04-28T08:47:03.353Z,10.70
2023-04-28T08:48:03.122Z,10.70
2023-04-28T08:49:03.513Z,10.70
2023-04-28T08:50:03.629Z,10.70
2023-04-28T08:51:02.692Z,10.70
2023-04-28T08:52:02.814Z,10.70
2023-04-28T08:53:03.397Z,10.70
2023-04-28T08:54:22.753Z,10.70
2023-04-28T08:55:02.721Z,10.70
2023-04-28T08:56:03.173Z,10.70
2023-04-28T08:57:02.869Z,10.70
2023-04-28T08:58:02.847Z,10.70
2023-04-28T08:59:03.573Z,10.70
2023-04-28T09:00:03.075Z,10.70
2023-04-28T09:01:03.025Z,10.70
2023-04-28T09:02:03.196Z,10.70
2023-04-28T09:03:03.277Z,10.70
2023-04-28T09:04:03.328Z,10.70
2023-04-28T09:05:03.089Z,10.70
2023-04-28T09:06:03.059Z,10.70
2023-04-28T09:07:02.836Z,10.70
2023-04-28T09:08:03.654Z,10.70
2023-04-28T09:09:03.274Z,10.70
2023-04-28T09:10:02.822Z,10.70
2023-04-28T09:11:03.350Z,10.70
2023-04-28T09:12:02.916Z,10.70
2023-04-28T09:13:03.591Z,10.60
2023-04-28T09:14:03.292Z,10.60
2023-04-28T09:15:02.893Z,10.60
2023-04-28T09:16:03.480Z,10.60
2023-04-28T09:17:03.856Z,10.60
2023-04-28T09:18:03.404Z,10.60
2023-04-28T09:19:03.321Z,10.60
2023-04-28T09:20:03.345Z,10.60
2023-04-28T09:21:02.890Z,10.60
2023-04-28T09:22:10.923Z,10.60
2023-04-28T09:23:02.965Z,10.60
2023-04-28T09:24:02.724Z,10.60
2023-04-28T09:25:02.831Z,10.60
2023-04-28T09:26:03.360Z,10.60
2023-04-28T09:27:03.079Z,10.60
2023-04-28T09:28:03.357Z,10.60
2023-04-28T09:29:03.318Z,10.60
2023-04-28T09:30:03.415Z,10.60
2023-04-28T09:31:03.402Z,10.60
2023-04-28T09:32:03.382Z,10.60
2023-04-28T09:33:03.095Z,10.60
2023-04-28T09:34:03.070Z,10.60
2023-04-28T09:35:03.023Z,10.60
2023-04-28T09:36:02.717Z,10.60
2023-04-28T09:37:03.372Z,10.60
2023-04-28T09:38:03.114Z,10.60
2023-04-28T09:39:03.146Z,10.60
2023-04-28T09:40:02.766Z,10.60
2023-04-28T09:41:03.202Z,10.60
2023-04-28T09:42:02.781Z,10.60
2023-04-28T09:43:11.858Z,10.60
2023-04-28T09:44:03.611Z,10.60
2023-04-28T09:45:03.601Z,10.60
2023-04-28T09:46:03.126Z,10.60
2023-04-28T09:47:02.863Z,10.60
2023-04-28T09:48:03.531Z,10.60
2023-04-28T09:49:03.202Z,10.60
2023-04-28T09:50:03.100Z,10.60
2023-04-28T09:51:02.715Z,10.70
2023-04-28T09:52:02.857Z,10.70
2023-04-28T09:53:02.778Z,10.70
2023-04-28T09:54:03.530Z,10.60
2023-04-28T09:55:03.148Z,10.70
2023-04-28T09:56:02.714Z,10.70
2023-04-28T09:57:02.871Z,10.60
2023-04-28T09:58:02.972Z,10.70
2023-04-28T09:59:02.870Z,10.60
2023-04-28T10:00:03.462Z,10.60
2023-04-28T10:01:03.018Z,10.70
2023-04-28T10:02:11.110Z,10.70
2023-04-28T10:03:02.884Z,10.70
2023-04-28T10:04:03.200Z,10.70
2023-04-28T10:05:03.034Z,10.70
2023-04-28T10:06:03.076Z,10.70
2023-04-28T10:07:02.757Z,10.70
2023-04-28T10:08:03.274Z,10.70
2023-04-28T10:09:02.986Z,10.70
2023-04-28T10:10:03.439Z,10.80
2023-04-28T10:11:03.162Z,10.80
2023-04-28T10:12:02.709Z,10.80
2023-04-28T10:13:03.620Z,10.80
2023-04-28T10:14:02.995Z,10.80
2023-04-28T10:15:03.266Z,10.90
2023-04-28T10:16:02.708Z,10.90
2023-04-28T10:17:03.418Z,10.90
2023-04-28T10:18:02.671Z,10.90
2023-04-28T10:19:03.376Z,10.90
2023-04-28T10:20:03.024Z,10.90
2023-04-28T10:21:03.535Z,11.00
2023-04-28T10:22:03.171Z,11.00
2023-04-28T10:23:02.837Z,11.00
2023-04-28T10:24:02.914Z,11.00
2023-04-28T10:25:03.521Z,11.00
2023-04-28T10:26:03.073Z,11.00
2023-04-28T10:27:02.647Z,11.00
2023-04-28T10:28:02.705Z,11.00
2023-04-28T10:29:03.231Z,11.00
2023-04-28T10:30:04.024Z,11.00
2023-04-28T10:31:03.582Z,11.00
2023-04-28T10:32:03.574Z,11.00
2023-04-28T10:33:03.113Z,10.90
2023-04-28T10:34:03.411Z,10.90
2023-04-28T10:35:02.941Z,10.90
2023-04-28T10:36:03.454Z,10.90
2023-04-28T10:37:03.628Z,10.90
2023-04-28T10:38:03.449Z,11.00
2023-04-28T10:39:03.404Z,11.00
2023-04-28T10:40:03.569Z,11.00
2023-04-28T10:41:02.647Z,11.00
2023-04-28T10:42:03.269Z,11.00
2023-04-28T10:43:02.827Z,11.10
2023-04-28T10:44:03.396Z,11.10
2023-04-28T10:45:02.860Z,11.10
2023-04-28T10:46:03.420Z,11.20
2023-04-28T10:47:03.266Z,11.20
2023-04-28T10:48:03.571Z,11.20
2023-04-28T10:49:02.705Z,11.30
2023-04-28T10:50:03.323Z,11.30
2023-04-28T10:51:03.427Z,11.40
2023-04-28T10:52:03.477Z,11.40
2023-04-28T10:53:03.016Z,11.40
2023-04-28T10:54:03.469Z,11.40
2023-04-28T10:55:12.649Z,11.40
2023-04-28T10:56:03.204Z,11.40
2023-04-28T10:57:02.845Z,11.50
2023-04-28T10:58:03.480Z,11.50
2023-04-28T10:59:03.060Z,11.50
2023-04-28T11:00:02.893Z,11.50
2023-04-28T11:01:02.838Z,11.50
2023-04-28T11:02:03.378Z,11.50
2023-04-28T11:03:03.278Z,11.60
2023-04-28T11:04:03.389Z,11.60
2023-04-28T11:05:02.998Z,11.60
2023-04-28T11:06:03.534Z,11.60
2023-04-28T11:07:03.213Z,11.60
2023-04-28T11:08:03.248Z,11.60
2023-04-28T11:09:02.712Z,11.60
2023-04-28T11:10:02.676Z,11.70
2023-04-28T11:11:03.291Z,11.70
2023-04-28T11:12:02.803Z,11.70
2023-04-28T11:13:02.835Z,11.70
2023-04-28T11:14:03.600Z,11.70
2023-04-28T11:15:03.124Z,11.70
2023-04-28T11:16:03.091Z,11.70
2023-04-28T11:17:03.688Z,11.70
2023-04-28T11:18:03.207Z,11.70
2023-04-28T11:19:03.200Z,11.60
2023-04-28T11:20:03.612Z,11.60
2023-04-28T11:21:03.181Z,11.60
2023-04-28T11:22:02.809Z,11.60
2023-04-28T11:23:03.369Z,11.60
2023-04-28T11:24:03.123Z,11.60
2023-04-28T11:25:03.119Z,11.60
2023-04-28T11:26:02.942Z,11.50
2023-04-28T11:27:03.489Z,11.50
2023-04-28T11:28:02.954Z,11.50
2023-04-28T11:29:03.483Z,11.50
2023-04-28T11:30:03.489Z,11.50
2023-04-28T11:31:03.150Z,11.50
2023-04-28T11:32:03.788Z,11.50
2023-04-28T11:33:02.638Z,11.50
2023-04-28T11:34:02.811Z,11.50
2023-04-28T11:35:03.212Z,11.50
2023-04-28T11:36:03.210Z,11.50
2023-04-28T11:37:02.685Z,11.50
2023-04-28T11:38:02.820Z,11.50
2023-04-28T11:39:02.808Z,11.50
2023-04-28T11:40:02.741Z,11.50
2023-04-28T11:41:03.266Z,11.50
2023-04-28T11:42:03.252Z,11.50
2023-04-28T11:43:03.040Z,11.50
2023-04-28T11:44:02.885Z,11.60
2023-04-28T11:45:03.548Z,11.50
2023-04-28T11:46:03.169Z,11.60
2023-04-28T11:47:03.426Z,11.50
2023-04-28T11:48:02.662Z,11.60
2023-04-28T11:49:03.258Z,11.60
2023-04-28T11:50:02.799Z,11.60
2023-04-28T11:51:02.622Z,11.50
2023-04-28T11:52:03.174Z,11.60
2023-04-28T11:53:03.537Z,11.60
2023-04-28T11:54:03.237Z,11.60
2023-04-28T11:55:03.224Z,11.60
2023-04-28T11:56:02.822Z,11.60
2023-04-28T11:57:02.861Z,11.60
2023-04-28T11:58:03.390Z,11.60
2023-04-28T11:59:03.826Z,11.60
2023-04-28T12:00:03.140Z,11.60
2023-04-28T12:01:03.042Z,11.60
2023-04-28T12:02:03.681Z,11.70
2023-04-28T12:03:03.542Z,11.70
2023-04-28T12:04:03.424Z,11.70
2023-04-28T12:05:03.247Z,11.70
2023-04-28T12:06:03.455Z,11.70
2023-04-28T12:07:03.085Z,11.70
2023-04-28T12:08:03.018Z,11.70
2023-04-28T12:09:03.052Z,11.70
2023-04-28T12:10:03.164Z,11.70
2023-04-28T12:11:02.647Z,11.70
2023-04-28T12:12:02.951Z,11.70
2023-04-28T12:13:03.726Z,11.80
2023-04-28T12:14:03.279Z,11.80
2023-04-28T12:15:03.389Z,11.80
2023-04-28T12:16:02.984Z,11.80
2023-04-28T12:17:03.633Z,11.80
2023-04-28T12:18:03.114Z,11.90
2023-04-28T12:19:02.993Z,11.90
2023-04-28T12:20:02.922Z,11.90
2023-04-28T12:21:02.966Z,11.90
2023-04-28T12:22:02.747Z,12.00
2023-04-28T12:23:03.253Z,12.00
2023-04-28T12:24:02.863Z,12.00
2023-04-28T12:25:02.860Z,12.10
2023-04-28T12:26:03.433Z,12.10
2023-04-28T12:27:02.911Z,12.20
2023-04-28T12:28:03.438Z,12.20
2023-04-28T12:29:03.129Z,12.30
2023-04-28T12:30:02.783Z,12.30
2023-04-28T12:31:02.678Z,12.40
2023-04-28T12:32:03.211Z,12.40
2023-04-28T12:33:02.877Z,12.50
2023-04-28T12:34:03.397Z,12.50
2023-04-28T12:35:02.908Z,12.50
2023-04-28T12:36:02.978Z,12.60
2023-04-28T12:37:02.892Z,12.60
2023-04-28T12:38:03.025Z,12.70
2023-04-28T12:39:03.447Z,12.70
2023-04-28T12:40:03.060Z,12.80
2023-04-28T12:41:03.119Z,12.80
2023-04-28T12:42:02.620Z,12.90
2023-04-28T12:43:03.271Z,12.90
2023-04-28T12:44:03.199Z,12.90
2023-04-28T12:45:03.263Z,13.00
2023-04-28T12:46:02.723Z,13.00
2023-04-28T12:47:03.355Z,13.00
2023-04-28T12:48:03.372Z,13.10
2023-04-28T12:49:02.920Z,13.10
2023-04-28T12:50:03.560Z,13.10
2023-04-28T12:51:03.040Z,13.20
2023-04-28T12:52:02.683Z,13.20
2023-04-28T12:53:02.803Z,13.20
2023-04-28T12:54:02.788Z,13.30
2023-04-28T12:55:03.367Z,13.30
2023-04-28T12:56:02.824Z,13.40
2023-04-28T12:57:03.341Z,13.40
2023-04-28T12:58:02.866Z,13.40
2023-04-28T12:59:03.410Z,13.40
2023-04-28T13:00:03.462Z,13.40
2023-04-28T13:01:03.053Z,13.50
2023-04-28T13:02:02.849Z,13.50
2023-04-28T13:03:03.655Z,13.50
2023-04-28T13:04:03.648Z,13.50
2023-04-28T13:05:03.523Z,13.50